TimeCDT,TemperatureF,Dew PointF,Humidity,Sea Level PressureIn,VisibilityMPH,Wind Direction,Wind SpeedMPH,Gust SpeedMPH,PrecipitationIn,Events,Conditions,WindDirDegrees,DateUTC
12:53 AM,25.0,21.9,88,30.13,6.0,Calm,Calm,-,N/A,,Clear,0,2012-10-31 05:53:00
1:53 AM,21.9,19.0,89,30.13,9.0,Calm,Calm,-,N/A,,Clear,0,2012-10-31 06:53:00
2:53 AM,27.0,24.1,89,30.12,10.0,Calm,Calm,-,N/A,,Clear,0,2012-10-31 07:53:00
3:53 AM,24.1,21.0,88,30.11,8.0,Calm,Calm,-,N/A,,Clear,0,2012-10-31 08:53:00
4:53 AM,24.1,21.9,91,30.10,8.0,Calm,Calm,-,N/A,,Mostly Cloudy,0,2012-10-31 09:53:00
5:53 AM,25.0,21.0,85,30.10,10.0,Calm,Calm,-,N/A,,Clear,0,2012-10-31 10:53:00
6:53 AM,21.9,19.9,92,30.10,10.0,Calm,Calm,-,N/A,,Clear,0,2012-10-31 11:53:00
7:53 AM,26.1,23.0,88,30.09,10.0,Calm,Calm,-,N/A,,Overcast,0,2012-10-31 12:53:00
8:53 AM,28.0,26.1,92,30.09,10.0,Calm,Calm,-,N/A,,Overcast,0,2012-10-31 13:53:00
9:53 AM,30.9,26.1,82,30.08,10.0,Calm,Calm,-,N/A,,Overcast,0,2012-10-31 14:53:00
10:53 AM,34.0,28.0,79,30.08,10.0,Calm,Calm,-,N/A,,Overcast,0,2012-10-31 15:53:00
11:53 AM,39.9,27.0,60,30.05,10.0,Calm,Calm,-,N/A,,Overcast,0,2012-10-31 16:53:00
12:53 PM,44.1,28.0,53,30.03,10.0,Calm,Calm,-,N/A,,Clear,0,2012-10-31 17:53:00
1:53 PM,48.2,24.8,40,29.95,10.0,Variable,3.5,-,N/A,,Clear,0,2012-10-31 18:53:00
2:53 PM,50.0,27.0,41,29.98,10.0,West,4.6,-,N/A,,Clear,260,2012-10-31 19:53:00
3:53 PM,50.0,28.0,43,29.98,10.0,WNW,4.6,-,N/A,,Overcast,290,2012-10-31 20:53:00
4:53 PM,48.9,30.0,48,29.97,10.0,WSW,5.8,-,N/A,,Mostly Cloudy,240,2012-10-31 21:53:00
5:53 PM,46.0,33.1,61,29.97,10.0,Calm,Calm,-,N/A,,Overcast,0,2012-10-31 22:53:00
6:53 PM,45.0,32.0,60,29.98,10.0,Calm,Calm,-,N/A,,Overcast,0,2012-10-31 23:53:00
7:53 PM,41.0,34.0,76,29.99,10.0,West,3.5,-,N/A,,Overcast,270,2012-11-01 00:53:00
8:53 PM,37.9,30.9,76,29.99,10.0,NW,6.9,-,N/A,,Mostly Cloudy,310,2012-11-01 01:53:00
9:53 PM,39.9,33.1,77,29.99,10.0,NW,6.9,-,N/A,,Overcast,320,2012-11-01 02:53:00
10:53 PM,42.1,34.0,73,29.99,10.0,NNW,5.8,-,N/A,,Overcast,330,2012-11-01 03:53:00
11:13 PM,42.8,33.8,70,29.94,10.0,NNW,6.9,-,N/A,,Overcast,330,2012-11-01 04:13:00
11:53 PM,42.1,34.0,73,29.99,10.0,NNW,13.8,20.7,N/A,,Overcast,330,2012-11-01 04:53:00